sensor_id;sensor_type;location;lat;lon;timestamp;temperature;humidity
6654;DHT22;3363;50.942;7.034;2023-04-25T00:00:01;10.50;62.40
6654;DHT22;3363;50.942;7.034;2023-04-25T00:02:29;10.60;62.50
6654;DHT22;3363;50.942;7.034;2023-04-25T00:04:58;10.50;60.60
6654;DHT22;3363;50.942;7.034;2023-04-25T00:07:25;10.50;62.40
6654;DHT22;3363;50.942;7.034;2023-04-25T00:09:52;10.50;61.50
6654;DHT22;3363;50.942;7.034;2023-04-25T00:12:19;10.50;62.50
6654;DHT22;3363;50.942;7.034;2023-04-25T00:14:48;10.50;61.50
6654;DHT22;3363;50.942;7.034;2023-04-25T00:17:15;10.50;62.50
6654;DHT22;3363;50.942;7.034;2023-04-25T00:19:42;10.40;61.60
6654;DHT22;3363;50.942;7.034;2023-04-25T00:22:11;10.40;62.80
6654;DHT22;3363;50.942;7.034;2023-04-25T00:24:38;10.30;62.10
6654;DHT22;3363;50.942;7.034;2023-04-25T00:27:05;10.20;62.10
6654;DHT22;3363;50.942;7.034;2023-04-25T00:29:32;10.20;63.00
6654;DHT22;3363;50.942;7.034;2023-04-25T00:31:59;10.20;63.00
6654;DHT22;3363;50.942;7.034;2023-04-25T00:34:26;10.30;63.10
6654;DHT22;3363;50.942;7.034;2023-04-25T00:36:53;10.30;63.10
6654;DHT22;3363;50.942;7.034;2023-04-25T00:39:21;10.20;63.00
6654;DHT22;3363;50.942;7.034;2023-04-25T00:41:48;10.20;63.00
6654;DHT22;3363;50.942;7.034;2023-04-25T00:44:19;10.00;61.20
6654;DHT22;3363;50.942;7.034;2023-04-25T00:46:47;9.90;63.90
6654;DHT22;3363;50.942;7.034;2023-04-25T00:49:14;10.00;62.40
6654;DHT22;3363;50.942;7.034;2023-04-25T00:51:43;9.90;63.00
6654;DHT22;3363;50.942;7.034;2023-04-25T00:54:11;9.90;64.80
6654;DHT22;3363;50.942;7.034;2023-04-25T00:56:40;10.00;63.60
6654;DHT22;3363;50.942;7.034;2023-04-25T00:59:07;10.10;63.10
6654;DHT22;3363;50.942;7.034;2023-04-25T01:01:36;10.20;63.50
6654;DHT22;3363;50.942;7.034;2023-04-25T01:04:03;10.20;63.00
6654;DHT22;3363;50.942;7.034;2023-04-25T01:06:30;10.20;62.90
6654;DHT22;3363;50.942;7.034;2023-04-25T01:08:59;10.20;63.00
6654;DHT22;3363;50.942;7.034;2023-04-25T01:11:26;10.30;62.60
6654;DHT22;3363;50.942;7.034;2023-04-25T01:13:54;10.30;62.40
6654;DHT22;3363;50.942;7.034;2023-04-25T01:16:21;10.30;62.20
6654;DHT22;3363;50.942;7.034;2023-04-25T01:18:49;10.30;62.20
6654;DHT22;3363;50.942;7.034;2023-04-25T01:21:18;10.30;62.20
6654;DHT22;3363;50.942;7.034;2023-04-25T01:23:45;10.30;62.20
6654;DHT22;3363;50.942;7.034;2023-04-25T01:26:12;10.30;62.10
6654;DHT22;3363;50.942;7.034;2023-04-25T01:28:39;10.30;62.10
6654;DHT22;3363;50.942;7.034;2023-04-25T01:31:07;10.30;62.10
6654;DHT22;3363;50.942;7.034;2023-04-25T01:33:34;10.30;62.00
6654;DHT22;3363;50.942;7.034;2023-04-25T01:36:01;10.30;61.70
6654;DHT22;3363;50.942;7.034;2023-04-25T01:38:30;10.20;62.00
6654;DHT22;3363;50.942;7.034;2023-04-25T01:40:57;10.30;62.10
6654;DHT22;3363;50.942;7.034;2023-04-25T01:43:24;10.30;62.10
6654;DHT22;3363;50.942;7.034;2023-04-25T01:45:52;10.30;62.10
6654;DHT22;3363;50.942;7.034;2023-04-25T01:48:19;10.30;62.10
6654;DHT22;3363;50.942;7.034;2023-04-25T01:50:46;10.30;62.10
6654;DHT22;3363;50.942;7.034;2023-04-25T01:53:13;10.30;62.10
6654;DHT22;3363;50.942;7.034;2023-04-25T01:55:42;10.20;62.00
6654;DHT22;3363;50.942;7.034;2023-04-25T01:58:09;10.10;62.30
6654;DHT22;3363;50.942;7.034;2023-04-25T02:00:38;10.10;63.00
6654;DHT22;3363;50.942;7.034;2023-04-25T02:03:06;10.10;62.20
6654;DHT22;3363;50.942;7.034;2023-04-25T02:05:35;10.00;62.40
6654;DHT22;3363;50.942;7.034;2023-04-25T02:08:04;9.80;63.60
6654;DHT22;3363;50.942;7.034;2023-04-25T02:10:31;9.90;64.20
6654;DHT22;3363;50.942;7.034;2023-04-25T02:13:00;9.90;64.00
6654;DHT22;3363;50.942;7.034;2023-04-25T02:15:27;9.90;63.80
6654;DHT22;3363;50.942;7.034;2023-04-25T02:17:54;9.90;63.00
6654;DHT22;3363;50.942;7.034;2023-04-25T02:20:21;9.70;63.50
6654;DHT22;3363;50.942;7.034;2023-04-25T02:22:49;9.80;64.00
6654;DHT22;3363;50.942;7.034;2023-04-25T02:25:16;9.80;62.60
6654;DHT22;3363;50.942;7.034;2023-04-25T02:27:45;9.70;64.20
6654;DHT22;3363;50.942;7.034;2023-04-25T02:30:14;9.80;64.00
6654;DHT22;3363;50.942;7.034;2023-04-25T02:32:42;9.80;63.20
6654;DHT22;3363;50.942;7.034;2023-04-25T02:35:09;9.80;63.60
6654;DHT22;3363;50.942;7.034;2023-04-25T02:37:39;9.70;63.70
6654;DHT22;3363;50.942;7.034;2023-04-25T02:40:07;9.60;63.80
6654;DHT22;3363;50.942;7.034;2023-04-25T02:42:34;9.70;64.90
6654;DHT22;3363;50.942;7.034;2023-04-25T02:45:01;9.70;65.30
6654;DHT22;3363;50.942;7.034;2023-04-25T02:47:29;9.80;65.30
6654;DHT22;3363;50.942;7.034;2023-04-25T02:49:56;9.80;64.40
6654;DHT22;3363;50.942;7.034;2023-04-25T02:52:23;9.60;65.40
6654;DHT22;3363;50.942;7.034;2023-04-25T02:54:50;9.70;66.10
6654;DHT22;3363;50.942;7.034;2023-04-25T02:57:17;9.70;65.70
6654;DHT22;3363;50.942;7.034;2023-04-25T02:59:44;9.70;66.20
6654;DHT22;3363;50.942;7.034;2023-04-25T03:02:11;9.60;65.50
6654;DHT22;3363;50.942;7.034;2023-04-25T03:04:39;9.70;66.30
6654;DHT22;3363;50.942;7.034;2023-04-25T03:07:06;9.80;65.80
6654;DHT22;3363;50.942;7.034;2023-04-25T03:09:33;9.80;64.90
6654;DHT22;3363;50.942;7.034;2023-04-25T03:12:00;9.70;65.40
6654;DHT22;3363;50.942;7.034;2023-04-25T03:14:27;9.70;66.20
6654;DHT22;3363;50.942;7.034;2023-04-25T03:16:54;9.70;65.30
6654;DHT22;3363;50.942;7.034;2023-04-25T03:19:21;9.70;66.10
6654;DHT22;3363;50.942;7.034;2023-04-25T03:21:49;9.80;65.90
6654;DHT22;3363;50.942;7.034;2023-04-25T03:24:16;9.80;65.70
6654;DHT22;3363;50.942;7.034;2023-04-25T03:26:43;9.90;65.50
6654;DHT22;3363;50.942;7.034;2023-04-25T03:29:10;9.70;65.50
6654;DHT22;3363;50.942;7.034;2023-04-25T03:31:37;9.70;65.70
6654;DHT22;3363;50.942;7.034;2023-04-25T03:34:04;9.70;65.90
6654;DHT22;3363;50.942;7.034;2023-04-25T03:36:31;9.80;65.80
6654;DHT22;3363;50.942;7.034;2023-04-25T03:38:59;9.80;65.60
6654;DHT22;3363;50.942;7.034;2023-04-25T03:41:26;9.80;65.70
6654;DHT22;3363;50.942;7.034;2023-04-25T03:43:53;9.80;65.70
6654;DHT22;3363;50.942;7.034;2023-04-25T03:46:20;9.80;66.20
6654;DHT22;3363;50.942;7.034;2023-04-25T03:48:47;9.70;65.70
6654;DHT22;3363;50.942;7.034;2023-04-25T03:51:13;9.50;64.90
6654;DHT22;3363;50.942;7.034;2023-04-25T03:53:41;9.50;66.60
6654;DHT22;3363;50.942;7.034;2023-04-25T03:56:09;9.50;66.30
6654;DHT22;3363;50.942;7.034;2023-04-25T03:58:36;9.50;67.10
6654;DHT22;3363;50.942;7.034;2023-04-25T04:01:03;9.40;67.00
6654;DHT22;3363;50.942;7.034;2023-04-25T04:03:33;9.40;66.30
6654;DHT22;3363;50.942;7.034;2023-04-25T04:06:00;9.40;68.10
6654;DHT22;3363;50.942;7.034;2023-04-25T04:08:28;9.50;67.10
6654;DHT22;3363;50.942;7.034;2023-04-25T04:10:55;9.50;67.50
6654;DHT22;3363;50.942;7.034;2023-04-25T04:13:23;9.40;66.80
6654;DHT22;3363;50.942;7.034;2023-04-25T04:15:50;9.40;67.90
6654;DHT22;3363;50.942;7.034;2023-04-25T04:18:17;9.40;67.10
6654;DHT22;3363;50.942;7.034;2023-04-25T04:20:44;9.50;68.40
6654;DHT22;3363;50.942;7.034;2023-04-25T04:23:11;9.60;67.60
6654;DHT22;3363;50.942;7.034;2023-04-25T04:25:38;9.60;66.30
6654;DHT22;3363;50.942;7.034;2023-04-25T04:28:05;9.50;67.50
6654;DHT22;3363;50.942;7.034;2023-04-25T04:30:34;9.50;67.50
6654;DHT22;3363;50.942;7.034;2023-04-25T04:33:01;9.40;67.80
6654;DHT22;3363;50.942;7.034;2023-04-25T04:35:29;9.40;67.70
6654;DHT22;3363;50.942;7.034;2023-04-25T04:37:55;9.30;68.60
6654;DHT22;3363;50.942;7.034;2023-04-25T04:40:22;9.30;68.90
6654;DHT22;3363;50.942;7.034;2023-04-25T04:42:51;9.30;69.00
6654;DHT22;3363;50.942;7.034;2023-04-25T04:45:18;9.40;69.20
6654;DHT22;3363;50.942;7.034;2023-04-25T04:47:47;9.40;69.20
6654;DHT22;3363;50.942;7.034;2023-04-25T04:50:15;9.40;68.80
6654;DHT22;3363;50.942;7.034;2023-04-25T04:52:42;9.50;68.60
6654;DHT22;3363;50.942;7.034;2023-04-25T04:55:09;9.50;68.50
6654;DHT22;3363;50.942;7.034;2023-04-25T04:57:36;9.40;68.90
6654;DHT22;3363;50.942;7.034;2023-04-25T05:00:05;9.40;68.80
6654;DHT22;3363;50.942;7.034;2023-04-25T05:02:36;9.40;69.30
6654;DHT22;3363;50.942;7.034;2023-04-25T05:05:05;9.40;69.70
6654;DHT22;3363;50.942;7.034;2023-04-25T05:07:32;9.40;69.70
6654;DHT22;3363;50.942;7.034;2023-04-25T05:09:59;9.50;69.30
6654;DHT22;3363;50.942;7.034;2023-04-25T05:12:26;9.50;69.20
6654;DHT22;3363;50.942;7.034;2023-04-25T05:14:53;9.40;69.10
6654;DHT22;3363;50.942;7.034;2023-04-25T05:17:20;9.40;69.20
6654;DHT22;3363;50.942;7.034;2023-04-25T05:19:47;9.40;69.50
6654;DHT22;3363;50.942;7.034;2023-04-25T05:22:15;9.40;69.80
6654;DHT22;3363;50.942;7.034;2023-04-25T05:24:42;9.30;70.30
6654;DHT22;3363;50.942;7.034;2023-04-25T05:27:09;9.30;70.40
6654;DHT22;3363;50.942;7.034;2023-04-25T05:29:37;9.20;69.40
6654;DHT22;3363;50.942;7.034;2023-04-25T05:32:05;9.30;70.60
6654;DHT22;3363;50.942;7.034;2023-04-25T05:34:33;9.30;70.90
6654;DHT22;3363;50.942;7.034;2023-04-25T05:37:00;9.20;70.40
6654;DHT22;3363;50.942;7.034;2023-04-25T05:39:28;9.30;70.80
6654;DHT22;3363;50.942;7.034;2023-04-25T05:41:55;9.30;71.30
6654;DHT22;3363;50.942;7.034;2023-04-25T05:44:22;9.30;71.00
6654;DHT22;3363;50.942;7.034;2023-04-25T05:46:49;9.30;70.50
6654;DHT22;3363;50.942;7.034;2023-04-25T05:49:16;9.30;70.90
6654;DHT22;3363;50.942;7.034;2023-04-25T05:51:43;9.40;70.40
6654;DHT22;3363;50.942;7.034;2023-04-25T05:54:10;9.50;69.90
6654;DHT22;3363;50.942;7.034;2023-04-25T05:56:38;9.40;69.90
6654;DHT22;3363;50.942;7.034;2023-04-25T05:59:05;9.40;69.40
6654;DHT22;3363;50.942;7.034;2023-04-25T06:01:32;9.40;69.80
6654;DHT22;3363;50.942;7.034;2023-04-25T06:03:59;9.50;69.20
6654;DHT22;3363;50.942;7.034;2023-04-25T06:06:27;9.60;69.00
6654;DHT22;3363;50.942;7.034;2023-04-25T06:08:53;9.60;68.40
6654;DHT22;3363;50.942;7.034;2023-04-25T06:11:21;9.60;69.10
6654;DHT22;3363;50.942;7.034;2023-04-25T06:13:49;9.50;68.70
6654;DHT22;3363;50.942;7.034;2023-04-25T06:16:16;9.50;68.80
6654;DHT22;3363;50.942;7.034;2023-04-25T06:18:43;9.60;68.40
6654;DHT22;3363;50.942;7.034;2023-04-25T06:21:11;9.60;68.50
6654;DHT22;3363;50.942;7.034;2023-04-25T06:23:38;9.60;68.10
6654;DHT22;3363;50.942;7.034;2023-04-25T06:26:05;9.50;68.60
6654;DHT22;3363;50.942;7.034;2023-04-25T06:28:32;9.50;68.90
6654;DHT22;3363;50.942;7.034;2023-04-25T06:31:01;9.70;68.60
6654;DHT22;3363;50.942;7.034;2023-04-25T06:33:27;9.80;67.70
6654;DHT22;3363;50.942;7.034;2023-04-25T06:35:54;9.70;66.70
6654;DHT22;3363;50.942;7.034;2023-04-25T06:38:21;9.70;66.80
6654;DHT22;3363;50.942;7.034;2023-04-25T06:40:48;9.70;67.10
6654;DHT22;3363;50.942;7.034;2023-04-25T06:43:15;9.60;66.50
6654;DHT22;3363;50.942;7.034;2023-04-25T06:45:42;9.70;67.30
6654;DHT22;3363;50.942;7.034;2023-04-25T06:48:10;9.80;65.90
6654;DHT22;3363;50.942;7.034;2023-04-25T06:50:37;9.70;65.60
6654;DHT22;3363;50.942;7.034;2023-04-25T06:53:04;9.70;66.00
6654;DHT22;3363;50.942;7.034;2023-04-25T06:55:38;9.70;64.70
6654;DHT22;3363;50.942;7.034;2023-04-25T06:58:05;9.70;64.10
6654;DHT22;3363;50.942;7.034;2023-04-25T07:00:32;9.70;64.70
6654;DHT22;3363;50.942;7.034;2023-04-25T07:03:00;9.90;65.30
6654;DHT22;3363;50.942;7.034;2023-04-25T07:05:29;9.90;63.50
6654;DHT22;3363;50.942;7.034;2023-04-25T07:07:55;9.90;63.60
6654;DHT22;3363;50.942;7.034;2023-04-25T07:10:24;9.90;62.90
6654;DHT22;3363;50.942;7.034;2023-04-25T07:12:51;9.90;63.60
6654;DHT22;3363;50.942;7.034;2023-04-25T07:15:18;9.80;63.60
6654;DHT22;3363;50.942;7.034;2023-04-25T07:17:45;9.80;64.00
6654;DHT22;3363;50.942;7.034;2023-04-25T07:20:12;9.70;63.10
6654;DHT22;3363;50.942;7.034;2023-04-25T07:22:40;9.80;63.10
6654;DHT22;3363;50.942;7.034;2023-04-25T07:25:08;9.80;63.00
6654;DHT22;3363;50.942;7.034;2023-04-25T07:27:36;9.90;63.60
6654;DHT22;3363;50.942;7.034;2023-04-25T07:30:03;9.90;62.80
6654;DHT22;3363;50.942;7.034;2023-04-25T07:32:30;9.80;62.40
6654;DHT22;3363;50.942;7.034;2023-04-25T07:34:57;9.80;62.10
6654;DHT22;3363;50.942;7.034;2023-04-25T07:37:24;9.80;62.80
6654;DHT22;3363;50.942;7.034;2023-04-25T07:39:53;9.80;61.90
6654;DHT22;3363;50.942;7.034;2023-04-25T07:42:20;9.90;62.10
6654;DHT22;3363;50.942;7.034;2023-04-25T07:44:47;9.90;61.80
6654;DHT22;3363;50.942;7.034;2023-04-25T07:47:14;10.00;60.50
6654;DHT22;3363;50.942;7.034;2023-04-25T07:49:41;10.10;60.10
6654;DHT22;3363;50.942;7.034;2023-04-25T07:52:08;10.10;59.80
6654;DHT22;3363;50.942;7.034;2023-04-25T07:54:34;10.10;59.90
6654;DHT22;3363;50.942;7.034;2023-04-25T07:57:03;10.10;59.80
6654;DHT22;3363;50.942;7.034;2023-04-25T07:59:31;10.10;57.10
6654;DHT22;3363;50.942;7.034;2023-04-25T08:01:59;10.10;57.70
6654;DHT22;3363;50.942;7.034;2023-04-25T08:04:26;10.10;58.10
6654;DHT22;3363;50.942;7.034;2023-04-25T08:06:53;10.10;58.00
6654;DHT22;3363;50.942;7.034;2023-04-25T08:09:21;10.30;58.60
6654;DHT22;3363;50.942;7.034;2023-04-25T08:11:48;10.30;58.10
6654;DHT22;3363;50.942;7.034;2023-04-25T08:14:16;10.40;58.30
6654;DHT22;3363;50.942;7.034;2023-04-25T08:16:43;10.30;56.90
6654;DHT22;3363;50.942;7.034;2023-04-25T08:19:10;10.30;56.20
6654;DHT22;3363;50.942;7.034;2023-04-25T08:21:37;10.40;57.40
6654;DHT22;3363;50.942;7.034;2023-04-25T08:24:05;10.40;56.40
6654;DHT22;3363;50.942;7.034;2023-04-25T08:26:31;10.30;54.00
6654;DHT22;3363;50.942;7.034;2023-04-25T08:28:59;10.40;55.90
6654;DHT22;3363;50.942;7.034;2023-04-25T08:31:28;10.40;53.20
6654;DHT22;3363;50.942;7.034;2023-04-25T08:33:55;10.30;55.60
6654;DHT22;3363;50.942;7.034;2023-04-25T08:36:22;10.20;55.90
6654;DHT22;3363;50.942;7.034;2023-04-25T08:38:49;10.20;54.90
6654;DHT22;3363;50.942;7.034;2023-04-25T08:41:16;10.30;56.50
6654;DHT22;3363;50.942;7.034;2023-04-25T08:43:45;10.30;55.80
6654;DHT22;3363;50.942;7.034;2023-04-25T08:46:17;10.20;54.50
6654;DHT22;3363;50.942;7.034;2023-04-25T08:48:46;10.10;54.90
6654;DHT22;3363;50.942;7.034;2023-04-25T08:51:21;10.00;54.70
6654;DHT22;3363;50.942;7.034;2023-04-25T08:53:51;10.10;54.60
6654;DHT22;3363;50.942;7.034;2023-04-25T08:56:18;10.10;54.40
6654;DHT22;3363;50.942;7.034;2023-04-25T08:58:48;10.00;55.80
6654;DHT22;3363;50.942;7.034;2023-04-25T09:01:15;10.00;55.50
6654;DHT22;3363;50.942;7.034;2023-04-25T09:03:45;9.90;56.60
6654;DHT22;3363;50.942;7.034;2023-04-25T09:06:13;10.00;55.00
6654;DHT22;3363;50.942;7.034;2023-04-25T09:08:41;10.00;54.00
6654;DHT22;3363;50.942;7.034;2023-04-25T09:11:08;10.00;55.30
6654;DHT22;3363;50.942;7.034;2023-04-25T09:13:35;10.00;55.70
6654;DHT22;3363;50.942;7.034;2023-04-25T09:16:02;10.00;55.70
6654;DHT22;3363;50.942;7.034;2023-04-25T09:18:30;10.10;56.10
6654;DHT22;3363;50.942;7.034;2023-04-25T09:21:06;10.20;56.00
6654;DHT22;3363;50.942;7.034;2023-04-25T09:23:39;10.10;56.10
6654;DHT22;3363;50.942;7.034;2023-04-25T09:26:07;10.20;55.80
6654;DHT22;3363;50.942;7.034;2023-04-25T09:28:35;10.30;56.30
6654;DHT22;3363;50.942;7.034;2023-04-25T09:31:03;10.30;54.70
6654;DHT22;3363;50.942;7.034;2023-04-25T09:33:32;10.30;54.10
6654;DHT22;3363;50.942;7.034;2023-04-25T09:36:06;10.30;54.40
6654;DHT22;3363;50.942;7.034;2023-04-25T09:38:40;10.40;55.20
6654;DHT22;3363;50.942;7.034;2023-04-25T09:41:08;10.50;54.90
6654;DHT22;3363;50.942;7.034;2023-04-25T09:43:35;10.60;52.10
6654;DHT22;3363;50.942;7.034;2023-04-25T09:46:04;10.50;53.30
6654;DHT22;3363;50.942;7.034;2023-04-25T09:48:34;10.50;54.00
6654;DHT22;3363;50.942;7.034;2023-04-25T09:51:06;10.50;53.90
6654;DHT22;3363;50.942;7.034;2023-04-25T09:53:34;10.50;52.90
6654;DHT22;3363;50.942;7.034;2023-04-25T09:56:04;10.40;53.50
6654;DHT22;3363;50.942;7.034;2023-04-25T09:58:32;10.40;54.60
6654;DHT22;3363;50.942;7.034;2023-04-25T10:01:02;10.40;53.20
6654;DHT22;3363;50.942;7.034;2023-04-25T10:03:30;10.30;53.10
6654;DHT22;3363;50.942;7.034;2023-04-25T10:05:59;10.30;52.90
6654;DHT22;3363;50.942;7.034;2023-04-25T10:08:31;10.40;53.70
6654;DHT22;3363;50.942;7.034;2023-04-25T10:11:00;10.30;52.10
6654;DHT22;3363;50.942;7.034;2023-04-25T10:13:28;10.40;53.50
6654;DHT22;3363;50.942;7.034;2023-04-25T10:15:57;10.50;53.30
6654;DHT22;3363;50.942;7.034;2023-04-25T10:18:25;10.40;53.20
6654;DHT22;3363;50.942;7.034;2023-04-25T10:20:52;10.40;53.90
6654;DHT22;3363;50.942;7.034;2023-04-25T10:23:20;10.40;52.30
6654;DHT22;3363;50.942;7.034;2023-04-25T10:25:49;10.40;53.20
6654;DHT22;3363;50.942;7.034;2023-04-25T10:28:16;10.30;49.10
6654;DHT22;3363;50.942;7.034;2023-04-25T10:30:57;10.40;53.20
6654;DHT22;3363;50.942;7.034;2023-04-25T10:33:30;10.40;53.20
6654;DHT22;3363;50.942;7.034;2023-04-25T10:35:58;10.40;49.30
6654;DHT22;3363;50.942;7.034;2023-04-25T10:38:26;10.50;51.20
6654;DHT22;3363;50.942;7.034;2023-04-25T10:41:08;10.50;50.50
6654;DHT22;3363;50.942;7.034;2023-04-25T10:43:37;10.60;51.80
6654;DHT22;3363;50.942;7.034;2023-04-25T10:46:13;10.80;49.50
6654;DHT22;3363;50.942;7.034;2023-04-25T10:48:48;11.00;49.80
6654;DHT22;3363;50.942;7.034;2023-04-25T10:51:20;11.10;48.30
6654;DHT22;3363;50.942;7.034;2023-04-25T10:53:57;11.20;47.40
6654;DHT22;3363;50.942;7.034;2023-04-25T10:56:29;11.10;45.30
6654;DHT22;3363;50.942;7.034;2023-04-25T10:59:07;10.90;44.80
6654;DHT22;3363;50.942;7.034;2023-04-25T11:01:37;10.70;47.90
6654;DHT22;3363;50.942;7.034;2023-04-25T11:04:05;10.70;46.80
6654;DHT22;3363;50.942;7.034;2023-04-25T11:06:42;10.60;48.00
6654;DHT22;3363;50.942;7.034;2023-04-25T11:09:14;10.60;47.10
6654;DHT22;3363;50.942;7.034;2023-04-25T11:11:42;10.50;46.00
6654;DHT22;3363;50.942;7.034;2023-04-25T11:14:09;10.50;47.70
6654;DHT22;3363;50.942;7.034;2023-04-25T11:16:36;10.50;48.90
6654;DHT22;3363;50.942;7.034;2023-04-25T11:19:03;10.60;48.60
6654;DHT22;3363;50.942;7.034;2023-04-25T11:21:31;10.70;48.70
6654;DHT22;3363;50.942;7.034;2023-04-25T11:23:59;10.70;49.10
6654;DHT22;3363;50.942;7.034;2023-04-25T11:26:27;10.80;48.50
6654;DHT22;3363;50.942;7.034;2023-04-25T11:28:59;10.80;48.00
6654;DHT22;3363;50.942;7.034;2023-04-25T11:31:26;10.80;48.10
6654;DHT22;3363;50.942;7.034;2023-04-25T11:33:53;10.80;48.00
6654;DHT22;3363;50.942;7.034;2023-04-25T11:36:22;10.90;48.10
6654;DHT22;3363;50.942;7.034;2023-04-25T11:38:50;10.90;46.20
6654;DHT22;3363;50.942;7.034;2023-04-25T11:41:19;10.90;48.30
6654;DHT22;3363;50.942;7.034;2023-04-25T11:43:48;10.90;47.20
6654;DHT22;3363;50.942;7.034;2023-04-25T11:46:16;10.80;46.50
6654;DHT22;3363;50.942;7.034;2023-04-25T11:48:45;10.80;47.40
6654;DHT22;3363;50.942;7.034;2023-04-25T11:51:13;10.90;46.60
6654;DHT22;3363;50.942;7.034;2023-04-25T11:53:41;10.90;46.70
6654;DHT22;3363;50.942;7.034;2023-04-25T11:56:09;11.10;47.20
6654;DHT22;3363;50.942;7.034;2023-04-25T11:58:58;11.10;44.80
6654;DHT22;3363;50.942;7.034;2023-04-25T12:01:31;11.20;45.60
6654;DHT22;3363;50.942;7.034;2023-04-25T12:03:58;11.10;43.90
6654;DHT22;3363;50.942;7.034;2023-04-25T12:06:28;11.10;46.60
6654;DHT22;3363;50.942;7.034;2023-04-25T12:09:00;11.40;46.50
6654;DHT22;3363;50.942;7.034;2023-04-25T12:11:27;11.60;45.60
6654;DHT22;3363;50.942;7.034;2023-04-25T12:13:54;11.70;46.00
6654;DHT22;3363;50.942;7.034;2023-04-25T12:16:21;11.80;42.30
6654;DHT22;3363;50.942;7.034;2023-04-25T12:18:51;11.90;45.00
6654;DHT22;3363;50.942;7.034;2023-04-25T12:21:20;12.10;43.80
6654;DHT22;3363;50.942;7.034;2023-04-25T12:23:47;12.30;41.20
6654;DHT22;3363;50.942;7.034;2023-04-25T12:26:14;12.30;40.90
6654;DHT22;3363;50.942;7.034;2023-04-25T12:28:45;12.60;40.90
6654;DHT22;3363;50.942;7.034;2023-04-25T12:31:13;12.50;40.20
6654;DHT22;3363;50.942;7.034;2023-04-25T12:33:41;12.40;41.90
6654;DHT22;3363;50.942;7.034;2023-04-25T12:36:14;12.30;40.20
6654;DHT22;3363;50.942;7.034;2023-04-25T12:38:43;12.20;37.30
6654;DHT22;3363;50.942;7.034;2023-04-25T12:41:10;12.00;40.80
6654;DHT22;3363;50.942;7.034;2023-04-25T12:43:37;11.90;41.40
6654;DHT22;3363;50.942;7.034;2023-04-25T12:46:04;11.70;41.80
6654;DHT22;3363;50.942;7.034;2023-04-25T12:48:31;11.60;37.40
6654;DHT22;3363;50.942;7.034;2023-04-25T12:50:58;11.50;39.90
6654;DHT22;3363;50.942;7.034;2023-04-25T12:53:26;11.50;40.90
6654;DHT22;3363;50.942;7.034;2023-04-25T12:55:54;11.50;40.90
6654;DHT22;3363;50.942;7.034;2023-04-25T12:58:21;11.50;41.40
6654;DHT22;3363;50.942;7.034;2023-04-25T13:00:49;11.50;40.90
6654;DHT22;3363;50.942;7.034;2023-04-25T13:03:16;11.40;40.10
6654;DHT22;3363;50.942;7.034;2023-04-25T13:05:43;11.40;40.10
6654;DHT22;3363;50.942;7.034;2023-04-25T13:08:10;11.40;41.90
6654;DHT22;3363;50.942;7.034;2023-04-25T13:10:38;11.40;41.50
6654;DHT22;3363;50.942;7.034;2023-04-25T13:13:05;11.40;40.50
6654;DHT22;3363;50.942;7.034;2023-04-25T13:15:32;11.40;39.20
6654;DHT22;3363;50.942;7.034;2023-04-25T13:17:59;11.50;41.60
6654;DHT22;3363;50.942;7.034;2023-04-25T13:20:26;11.70;41.40
6654;DHT22;3363;50.942;7.034;2023-04-25T13:22:53;11.90;38.50
6654;DHT22;3363;50.942;7.034;2023-04-25T13:25:20;12.10;40.70
6654;DHT22;3363;50.942;7.034;2023-04-25T13:27:49;12.20;38.80
6654;DHT22;3363;50.942;7.034;2023-04-25T13:30:16;12.30;37.80
6654;DHT22;3363;50.942;7.034;2023-04-25T13:32:42;12.40;38.20
6654;DHT22;3363;50.942;7.034;2023-04-25T13:35:12;12.50;38.30
6654;DHT22;3363;50.942;7.034;2023-04-25T13:37:39;12.50;36.00
6654;DHT22;3363;50.942;7.034;2023-04-25T13:40:08;12.50;38.30
6654;DHT22;3363;50.942;7.034;2023-04-25T13:42:36;12.60;36.50
6654;DHT22;3363;50.942;7.034;2023-04-25T13:45:05;12.50;38.40
6654;DHT22;3363;50.942;7.034;2023-04-25T13:47:33;12.30;37.50
6654;DHT22;3363;50.942;7.034;2023-04-25T13:50:00;12.10;37.10
6654;DHT22;3363;50.942;7.034;2023-04-25T13:52:28;11.90;36.10
6654;DHT22;3363;50.942;7.034;2023-04-25T13:54:58;11.90;38.00
6654;DHT22;3363;50.942;7.034;2023-04-25T13:57:25;12.00;37.80
6654;DHT22;3363;50.942;7.034;2023-04-25T13:59:52;12.10;37.90
6654;DHT22;3363;50.942;7.034;2023-04-25T14:02:20;11.90;40.10
6654;DHT22;3363;50.942;7.034;2023-04-25T14:04:47;12.20;42.40
6654;DHT22;3363;50.942;7.034;2023-04-25T14:07:14;12.50;40.80
6654;DHT22;3363;50.942;7.034;2023-04-25T14:09:42;12.60;41.60
6654;DHT22;3363;50.942;7.034;2023-04-25T14:12:09;12.80;40.10
6654;DHT22;3363;50.942;7.034;2023-04-25T14:14:37;12.90;40.40
6654;DHT22;3363;50.942;7.034;2023-04-25T14:17:04;12.80;39.20
6654;DHT22;3363;50.942;7.034;2023-04-25T14:19:33;12.60;39.40
6654;DHT22;3363;50.942;7.034;2023-04-25T14:22:00;12.60;39.80
6654;DHT22;3363;50.942;7.034;2023-04-25T14:24:26;12.80;40.50
6654;DHT22;3363;50.942;7.034;2023-04-25T14:26:53;12.80;40.10
6654;DHT22;3363;50.942;7.034;2023-04-25T14:29:20;12.60;38.50
6654;DHT22;3363;50.942;7.034;2023-04-25T14:31:47;12.50;38.90
6654;DHT22;3363;50.942;7.034;2023-04-25T14:34:14;12.30;40.20
6654;DHT22;3363;50.942;7.034;2023-04-25T14:36:43;12.40;39.10
6654;DHT22;3363;50.942;7.034;2023-04-25T14:39:09;12.40;39.80
6654;DHT22;3363;50.942;7.034;2023-04-25T14:41:38;12.60;41.10
6654;DHT22;3363;50.942;7.034;2023-04-25T14:44:05;12.70;39.90
6654;DHT22;3363;50.942;7.034;2023-04-25T14:46:32;12.60;40.00
6654;DHT22;3363;50.942;7.034;2023-04-25T14:48:59;12.40;40.40
6654;DHT22;3363;50.942;7.034;2023-04-25T14:51:26;12.50;41.00
6654;DHT22;3363;50.942;7.034;2023-04-25T14:53:55;12.50;37.60
6654;DHT22;3363;50.942;7.034;2023-04-25T14:56:21;12.50;36.60
6654;DHT22;3363;50.942;7.034;2023-04-25T14:58:48;12.50;36.50
6654;DHT22;3363;50.942;7.034;2023-04-25T15:01:16;12.50;35.90
6654;DHT22;3363;50.942;7.034;2023-04-25T15:03:46;12.40;36.20
6654;DHT22;3363;50.942;7.034;2023-04-25T15:06:13;12.30;37.00
6654;DHT22;3363;50.942;7.034;2023-04-25T15:08:40;12.20;38.40
6654;DHT22;3363;50.942;7.034;2023-04-25T15:11:08;12.20;34.70
6654;DHT22;3363;50.942;7.034;2023-04-25T15:13:36;12.00;39.00
6654;DHT22;3363;50.942;7.034;2023-04-25T15:16:04;12.00;39.40
6654;DHT22;3363;50.942;7.034;2023-04-25T15:18:31;12.00;38.50
6654;DHT22;3363;50.942;7.034;2023-04-25T15:20:58;11.80;38.10
6654;DHT22;3363;50.942;7.034;2023-04-25T15:23:25;12.00;37.80
6654;DHT22;3363;50.942;7.034;2023-04-25T15:25:52;12.10;37.40
6654;DHT22;3363;50.942;7.034;2023-04-25T15:28:20;12.20;39.50
6654;DHT22;3363;50.942;7.034;2023-04-25T15:30:47;12.20;38.00
6654;DHT22;3363;50.942;7.034;2023-04-25T15:33:14;12.20;37.90
6654;DHT22;3363;50.942;7.034;2023-04-25T15:35:41;12.20;38.90
6654;DHT22;3363;50.942;7.034;2023-04-25T15:38:08;12.10;36.60
6654;DHT22;3363;50.942;7.034;2023-04-25T15:40:36;12.20;38.70
6654;DHT22;3363;50.942;7.034;2023-04-25T15:43:03;12.30;38.10
6654;DHT22;3363;50.942;7.034;2023-04-25T15:45:31;12.30;36.00
6654;DHT22;3363;50.942;7.034;2023-04-25T15:47:58;12.40;38.20
6654;DHT22;3363;50.942;7.034;2023-04-25T15:50:26;12.40;38.20
6654;DHT22;3363;50.942;7.034;2023-04-25T15:52:53;12.30;36.30
6654;DHT22;3363;50.942;7.034;2023-04-25T15:55:20;12.30;37.10
6654;DHT22;3363;50.942;7.034;2023-04-25T15:57:48;12.20;36.50
6654;DHT22;3363;50.942;7.034;2023-04-25T16:00:16;12.20;38.00
6654;DHT22;3363;50.942;7.034;2023-04-25T16:02:46;12.10;39.40
6654;DHT22;3363;50.942;7.034;2023-04-25T16:05:14;12.10;39.30
6654;DHT22;3363;50.942;7.034;2023-04-25T16:07:42;12.10;38.40
6654;DHT22;3363;50.942;7.034;2023-04-25T16:10:10;12.10;39.40